sensor_id;sensor_type;location;lat;lon;timestamp;P1;durP1;ratioP1;P2;durP2;ratioP2
15043;SDS011;7619;48.562;8.910;2022-12-05T00:01:25;12.13;;;6.47;;
15043;SDS011;7619;48.562;8.910;2022-12-05T00:03:58;13.83;;;6.80;;
15043;SDS011;7619;48.562;8.910;2022-12-05T00:06:29;10.20;;;6.37;;
15043;SDS011;7619;48.562;8.910;2022-12-05T00:09:00;12.20;;;5.97;;
15043;SDS011;7619;48.562;8.910;2022-12-05T00:11:30;10.87;;;5.67;;
15043;SDS011;7619;48.562;8.910;2022-12-05T00:14:07;12.30;;;5.87;;
15043;SDS011;7619;48.562;8.910;2022-12-05T00:16:38;10.90;;;5.80;;
15043;SDS011;7619;48.562;8.910;2022-12-05T00:19:09;10.37;;;5.47;;
15043;SDS011;7619;48.562;8.910;2022-12-05T00:21:39;13.67;;;5.97;;
15043;SDS011;7619;48.562;8.910;2022-12-05T00:24:10;11.33;;;5.70;;
15043;SDS011;7619;48.562;8.910;2022-12-05T00:26:41;10.87;;;6.43;;
15043;SDS011;7619;48.562;8.910;2022-12-05T00:29:11;10.93;;;6.10;;
15043;SDS011;7619;48.562;8.910;2022-12-05T00:31:49;11.23;;;5.80;;
15043;SDS011;7619;48.562;8.910;2022-12-05T00:34:18;9.97;;;6.03;;
15043;SDS011;7619;48.562;8.910;2022-12-05T00:36:47;12.27;;;5.97;;
15043;SDS011;7619;48.562;8.910;2022-12-05T00:39:16;14.83;;;6.50;;
15043;SDS011;7619;48.562;8.910;2022-12-05T00:41:45;9.43;;;5.43;;
15043;SDS011;7619;48.562;8.910;2022-12-05T00:44:14;9.43;;;5.30;;
15043;SDS011;7619;48.562;8.910;2022-12-05T00:49:21;12.23;;;6.47;;
15043;SDS011;7619;48.562;8.910;2022-12-05T00:51:50;8.50;;;5.07;;
15043;SDS011;7619;48.562;8.910;2022-12-05T00:54:19;12.20;;;5.53;;
15043;SDS011;7619;48.562;8.910;2022-12-05T00:56:48;11.77;;;5.70;;
15043;SDS011;7619;48.562;8.910;2022-12-05T00:59:19;10.33;;;5.60;;
15043;SDS011;7619;48.562;8.910;2022-12-05T01:01:49;11.93;;;6.67;;
15043;SDS011;7619;48.562;8.910;2022-12-05T01:04:19;11.77;;;5.37;;
15043;SDS011;7619;48.562;8.910;2022-12-05T01:06:49;8.67;;;5.43;;
15043;SDS011;7619;48.562;8.910;2022-12-05T01:09:22;12.00;;;6.00;;
15043;SDS011;7619;48.562;8.910;2022-12-05T01:11:52;9.90;;;5.87;;
15043;SDS011;7619;48.562;8.910;2022-12-05T01:14:22;10.77;;;5.60;;
15043;SDS011;7619;48.562;8.910;2022-12-05T01:16:52;16.70;;;6.63;;
15043;SDS011;7619;48.562;8.910;2022-12-05T01:19:24;16.47;;;7.47;;
15043;SDS011;7619;48.562;8.910;2022-12-05T01:21:54;16.50;;;7.17;;
15043;SDS011;7619;48.562;8.910;2022-12-05T01:24:24;16.70;;;7.77;;
15043;SDS011;7619;48.562;8.910;2022-12-05T01:26:54;18.97;;;7.93;;
15043;SDS011;7619;48.562;8.910;2022-12-05T01:29:23;17.87;;;7.90;;
15043;SDS011;7619;48.562;8.910;2022-12-05T01:31:52;14.13;;;7.70;;
15043;SDS011;7619;48.562;8.910;2022-12-05T01:34:21;15.60;;;8.23;;
15043;SDS011;7619;48.562;8.910;2022-12-05T01:36:50;15.80;;;7.57;;
15043;SDS011;7619;48.562;8.910;2022-12-05T01:39:19;15.63;;;8.23;;
15043;SDS011;7619;48.562;8.910;2022-12-05T01:41:49;15.77;;;6.60;;
15043;SDS011;7619;48.562;8.910;2022-12-05T01:47:22;14.73;;;7.70;;
15043;SDS011;7619;48.562;8.910;2022-12-05T01:49:53;19.13;;;8.03;;
15043;SDS011;7619;48.562;8.910;2022-12-05T01:52:24;15.17;;;7.60;;
15043;SDS011;7619;48.562;8.910;2022-12-05T01:54:56;14.63;;;7.40;;
15043;SDS011;7619;48.562;8.910;2022-12-05T01:57:27;17.47;;;8.27;;
15043;SDS011;7619;48.562;8.910;2022-12-05T01:59:58;20.10;;;7.57;;
15043;SDS011;7619;48.562;8.910;2022-12-05T02:02:29;20.20;;;7.60;;
15043;SDS011;7619;48.562;8.910;2022-12-05T02:05:00;18.23;;;7.90;;
15043;SDS011;7619;48.562;8.910;2022-12-05T02:07:32;18.73;;;7.53;;
15043;SDS011;7619;48.562;8.910;2022-12-05T02:10:02;15.33;;;7.50;;
15043;SDS011;7619;48.562;8.910;2022-12-05T02:12:33;18.17;;;7.60;;
15043;SDS011;7619;48.562;8.910;2022-12-05T02:15:04;16.93;;;8.30;;
15043;SDS011;7619;48.562;8.910;2022-12-05T02:17:47;19.87;;;8.40;;
15043;SDS011;7619;48.562;8.910;2022-12-05T02:20:24;14.87;;;7.33;;
15043;SDS011;7619;48.562;8.910;2022-12-05T02:23:03;12.70;;;8.00;;
15043;SDS011;7619;48.562;8.910;2022-12-05T02:26:05;15.00;;;6.73;;
15043;SDS011;7619;48.562;8.910;2022-12-05T02:32:07;13.53;;;7.17;;
15043;SDS011;7619;48.562;8.910;2022-12-05T02:34:40;14.50;;;7.10;;
15043;SDS011;7619;48.562;8.910;2022-12-05T02:37:13;13.33;;;7.23;;
15043;SDS011;7619;48.562;8.910;2022-12-05T02:39:44;12.43;;;6.80;;
15043;SDS011;7619;48.562;8.910;2022-12-05T02:42:17;14.13;;;8.03;;
15043;SDS011;7619;48.562;8.910;2022-12-05T02:44:47;11.10;;;7.00;;
15043;SDS011;7619;48.562;8.910;2022-12-05T02:47:20;12.60;;;6.97;;
15043;SDS011;7619;48.562;8.910;2022-12-05T02:49:51;14.03;;;6.07;;
15043;SDS011;7619;48.562;8.910;2022-12-05T02:52:22;15.93;;;7.03;;
15043;SDS011;7619;48.562;8.910;2022-12-05T02:54:53;12.53;;;6.87;;
15043;SDS011;7619;48.562;8.910;2022-12-05T02:57:23;18.13;;;8.13;;
15043;SDS011;7619;48.562;8.910;2022-12-05T02:59:52;13.53;;;6.80;;
15043;SDS011;7619;48.562;8.910;2022-12-05T03:02:25;10.03;;;5.80;;
15043;SDS011;7619;48.562;8.910;2022-12-05T03:04:56;16.33;;;6.83;;
15043;SDS011;7619;48.562;8.910;2022-12-05T03:07:27;12.90;;;6.63;;
15043;SDS011;7619;48.562;8.910;2022-12-05T03:09:58;12.30;;;6.50;;
15043;SDS011;7619;48.562;8.910;2022-12-05T03:12:30;10.97;;;6.57;;
15043;SDS011;7619;48.562;8.910;2022-12-05T03:15:03;14.07;;;6.87;;
15043;SDS011;7619;48.562;8.910;2022-12-05T03:17:35;13.03;;;6.50;;
15043;SDS011;7619;48.562;8.910;2022-12-05T03:20:08;14.10;;;6.80;;
15043;SDS011;7619;48.562;8.910;2022-12-05T03:22:48;12.83;;;6.83;;
15043;SDS011;7619;48.562;8.910;2022-12-05T03:25:20;15.57;;;7.50;;
15043;SDS011;7619;48.562;8.910;2022-12-05T03:27:52;15.40;;;7.43;;
15043;SDS011;7619;48.562;8.910;2022-12-05T03:30:24;13.07;;;7.07;;
15043;SDS011;7619;48.562;8.910;2022-12-05T03:32:53;16.87;;;7.10;;
15043;SDS011;7619;48.562;8.910;2022-12-05T03:35:26;12.90;;;6.17;;
15043;SDS011;7619;48.562;8.910;2022-12-05T03:37:59;11.47;;;6.50;;
15043;SDS011;7619;48.562;8.910;2022-12-05T03:40:30;12.30;;;7.20;;
15043;SDS011;7619;48.562;8.910;2022-12-05T03:43:03;15.67;;;7.37;;
15043;SDS011;7619;48.562;8.910;2022-12-05T03:45:35;12.37;;;7.37;;
15043;SDS011;7619;48.562;8.910;2022-12-05T03:48:08;14.60;;;6.83;;
15043;SDS011;7619;48.562;8.910;2022-12-05T03:50:40;14.53;;;7.37;;
15043;SDS011;7619;48.562;8.910;2022-12-05T03:53:12;15.30;;;7.03;;
15043;SDS011;7619;48.562;8.910;2022-12-05T03:55:45;15.20;;;6.37;;
15043;SDS011;7619;48.562;8.910;2022-12-05T03:58:18;13.80;;;6.90;;
15043;SDS011;7619;48.562;8.910;2022-12-05T04:00:49;12.13;;;7.20;;
15043;SDS011;7619;48.562;8.910;2022-12-05T04:03:21;13.23;;;6.40;;
15043;SDS011;7619;48.562;8.910;2022-12-05T04:05:53;12.43;;;6.27;;
15043;SDS011;7619;48.562;8.910;2022-12-05T04:08:25;13.80;;;6.80;;
15043;SDS011;7619;48.562;8.910;2022-12-05T04:10:57;13.30;;;5.60;;
15043;SDS011;7619;48.562;8.910;2022-12-05T04:13:29;12.17;;;6.80;;
15043;SDS011;7619;48.562;8.910;2022-12-05T04:16:01;11.77;;;6.47;;
15043;SDS011;7619;48.562;8.910;2022-12-05T04:18:51;14.87;;;7.53;;
15043;SDS011;7619;48.562;8.910;2022-12-05T04:21:22;13.07;;;6.83;;
15043;SDS011;7619;48.562;8.910;2022-12-05T04:24:04;12.80;;;6.33;;
15043;SDS011;7619;48.562;8.910;2022-12-05T04:26:57;11.70;;;6.50;;
15043;SDS011;7619;48.562;8.910;2022-12-05T04:29:30;11.83;;;6.00;;
15043;SDS011;7619;48.562;8.910;2022-12-05T04:32:03;14.63;;;6.73;;
15043;SDS011;7619;48.562;8.910;2022-12-05T04:34:33;12.97;;;6.03;;
15043;SDS011;7619;48.562;8.910;2022-12-05T04:37:04;14.80;;;6.87;;
15043;SDS011;7619;48.562;8.910;2022-12-05T04:39:36;11.60;;;6.97;;
15043;SDS011;7619;48.562;8.910;2022-12-05T04:42:08;9.93;;;5.93;;
15043;SDS011;7619;48.562;8.910;2022-12-05T04:44:40;9.27;;;5.73;;
15043;SDS011;7619;48.562;8.910;2022-12-05T04:47:12;9.17;;;5.90;;
15043;SDS011;7619;48.562;8.910;2022-12-05T04:49:43;8.50;;;5.60;;
15043;SDS011;7619;48.562;8.910;2022-12-05T04:52:13;11.27;;;5.33;;
15043;SDS011;7619;48.562;8.910;2022-12-05T04:54:43;17.60;;;7.10;;
15043;SDS011;7619;48.562;8.910;2022-12-05T04:57:15;11.10;;;6.10;;
15043;SDS011;7619;48.562;8.910;2022-12-05T04:59:47;14.20;;;6.13;;
15043;SDS011;7619;48.562;8.910;2022-12-05T05:02:17;15.17;;;6.93;;
15043;SDS011;7619;48.562;8.910;2022-12-05T05:04:48;11.03;;;6.33;;
15043;SDS011;7619;48.562;8.910;2022-12-05T05:07:19;8.80;;;5.10;;
15043;SDS011;7619;48.562;8.910;2022-12-05T05:09:48;8.23;;;5.10;;
15043;SDS011;7619;48.562;8.910;2022-12-05T05:12:17;12.10;;;6.03;;
15043;SDS011;7619;48.562;8.910;2022-12-05T05:14:46;9.70;;;5.60;;
15043;SDS011;7619;48.562;8.910;2022-12-05T05:17:15;10.53;;;5.97;;
15043;SDS011;7619;48.562;8.910;2022-12-05T05:19:44;12.33;;;6.33;;
15043;SDS011;7619;48.562;8.910;2022-12-05T05:22:13;13.20;;;6.50;;
15043;SDS011;7619;48.562;8.910;2022-12-05T05:24:42;10.37;;;6.27;;
15043;SDS011;7619;48.562;8.910;2022-12-05T05:27:11;12.17;;;5.90;;
15043;SDS011;7619;48.562;8.910;2022-12-05T05:29:40;13.67;;;6.50;;
15043;SDS011;7619;48.562;8.910;2022-12-05T05:32:09;11.90;;;6.50;;
15043;SDS011;7619;48.562;8.910;2022-12-05T05:34:38;10.03;;;6.53;;
15043;SDS011;7619;48.562;8.910;2022-12-05T05:37:07;10.73;;;6.50;;
15043;SDS011;7619;48.562;8.910;2022-12-05T05:39:36;10.00;;;6.00;;
15043;SDS011;7619;48.562;8.910;2022-12-05T05:42:05;12.40;;;6.53;;
15043;SDS011;7619;48.562;8.910;2022-12-05T05:44:34;10.80;;;5.90;;
15043;SDS011;7619;48.562;8.910;2022-12-05T05:47:03;14.50;;;6.70;;
15043;SDS011;7619;48.562;8.910;2022-12-05T05:49:33;11.40;;;6.60;;
15043;SDS011;7619;48.562;8.910;2022-12-05T05:52:02;13.07;;;6.23;;
15043;SDS011;7619;48.562;8.910;2022-12-05T05:54:31;13.70;;;7.07;;
15043;SDS011;7619;48.562;8.910;2022-12-05T05:57:00;12.90;;;7.13;;
15043;SDS011;7619;48.562;8.910;2022-12-05T05:59:29;10.97;;;6.77;;
15043;SDS011;7619;48.562;8.910;2022-12-05T06:01:58;12.67;;;7.37;;
15043;SDS011;7619;48.562;8.910;2022-12-05T06:04:27;11.07;;;7.17;;
15043;SDS011;7619;48.562;8.910;2022-12-05T06:06:56;9.83;;;6.67;;
15043;SDS011;7619;48.562;8.910;2022-12-05T06:09:25;12.63;;;6.07;;
15043;SDS011;7619;48.562;8.910;2022-12-05T06:11:54;12.60;;;7.23;;
15043;SDS011;7619;48.562;8.910;2022-12-05T06:14:23;12.27;;;6.07;;
15043;SDS011;7619;48.562;8.910;2022-12-05T06:16:52;8.37;;;4.93;;
15043;SDS011;7619;48.562;8.910;2022-12-05T06:19:22;13.10;;;6.40;;
15043;SDS011;7619;48.562;8.910;2022-12-05T06:21:51;9.90;;;6.53;;
15043;SDS011;7619;48.562;8.910;2022-12-05T06:24:20;11.70;;;6.23;;
15043;SDS011;7619;48.562;8.910;2022-12-05T06:26:49;8.50;;;5.57;;
15043;SDS011;7619;48.562;8.910;2022-12-05T06:29:18;10.80;;;6.07;;
15043;SDS011;7619;48.562;8.910;2022-12-05T06:31:46;10.57;;;6.77;;
15043;SDS011;7619;48.562;8.910;2022-12-05T06:34:15;11.47;;;6.07;;
15043;SDS011;7619;48.562;8.910;2022-12-05T06:36:45;9.87;;;5.70;;
15043;SDS011;7619;48.562;8.910;2022-12-05T06:39:14;14.43;;;6.43;;
15043;SDS011;7619;48.562;8.910;2022-12-05T06:41:43;13.03;;;7.40;;
15043;SDS011;7619;48.562;8.910;2022-12-05T06:44:12;12.30;;;6.57;;
15043;SDS011;7619;48.562;8.910;2022-12-05T06:46:41;12.60;;;7.37;;
15043;SDS011;7619;48.562;8.910;2022-12-05T06:49:10;11.37;;;6.50;;
15043;SDS011;7619;48.562;8.910;2022-12-05T06:51:39;15.43;;;7.67;;
15043;SDS011;7619;48.562;8.910;2022-12-05T06:54:09;13.07;;;7.27;;
15043;SDS011;7619;48.562;8.910;2022-12-05T06:56:38;13.80;;;7.13;;
15043;SDS011;7619;48.562;8.910;2022-12-05T06:59:07;9.67;;;6.80;;
15043;SDS011;7619;48.562;8.910;2022-12-05T07:01:36;11.70;;;5.70;;
15043;SDS011;7619;48.562;8.910;2022-12-05T07:06:45;10.67;;;6.70;;
15043;SDS011;7619;48.562;8.910;2022-12-05T07:09:16;15.07;;;6.80;;
15043;SDS011;7619;48.562;8.910;2022-12-05T07:11:47;12.17;;;6.20;;
15043;SDS011;7619;48.562;8.910;2022-12-05T07:14:17;12.40;;;6.00;;
15043;SDS011;7619;48.562;8.910;2022-12-05T07:16:46;10.83;;;6.07;;
15043;SDS011;7619;48.562;8.910;2022-12-05T07:19:16;12.63;;;6.77;;
15043;SDS011;7619;48.562;8.910;2022-12-05T07:21:47;9.50;;;5.87;;
15043;SDS011;7619;48.562;8.910;2022-12-05T07:24:16;11.70;;;6.37;;
15043;SDS011;7619;48.562;8.910;2022-12-05T07:26:45;12.20;;;6.57;;
15043;SDS011;7619;48.562;8.910;2022-12-05T07:29:15;9.97;;;6.53;;
15043;SDS011;7619;48.562;8.910;2022-12-05T07:31:45;13.27;;;6.20;;
15043;SDS011;7619;48.562;8.910;2022-12-05T07:34:17;11.10;;;6.10;;
15043;SDS011;7619;48.562;8.910;2022-12-05T07:36:46;10.17;;;5.80;;
15043;SDS011;7619;48.562;8.910;2022-12-05T07:39:16;8.67;;;5.57;;
15043;SDS011;7619;48.562;8.910;2022-12-05T07:41:45;11.47;;;6.67;;
15043;SDS011;7619;48.562;8.910;2022-12-05T07:44:16;11.83;;;6.83;;
15043;SDS011;7619;48.562;8.910;2022-12-05T07:46:46;12.03;;;6.80;;
15043;SDS011;7619;48.562;8.910;2022-12-05T07:49:15;11.63;;;5.90;;
15043;SDS011;7619;48.562;8.910;2022-12-05T07:51:44;9.50;;;5.30;;
15043;SDS011;7619;48.562;8.910;2022-12-05T07:54:14;11.50;;;6.17;;
15043;SDS011;7619;48.562;8.910;2022-12-05T07:56:44;9.07;;;5.73;;
15043;SDS011;7619;48.562;8.910;2022-12-05T07:59:15;8.67;;;5.63;;
15043;SDS011;7619;48.562;8.910;2022-12-05T08:01:44;9.90;;;5.97;;
15043;SDS011;7619;48.562;8.910;2022-12-05T08:04:15;9.93;;;6.20;;
15043;SDS011;7619;48.562;8.910;2022-12-05T08:06:44;7.57;;;5.00;;
15043;SDS011;7619;48.562;8.910;2022-12-05T08:09:15;9.37;;;5.87;;
15043;SDS011;7619;48.562;8.910;2022-12-05T08:11:44;9.57;;;5.73;;
15043;SDS011;7619;48.562;8.910;2022-12-05T08:14:15;10.60;;;6.23;;
15043;SDS011;7619;48.562;8.910;2022-12-05T08:16:44;8.73;;;6.17;;
15043;SDS011;7619;48.562;8.910;2022-12-05T08:19:15;8.50;;;6.07;;
15043;SDS011;7619;48.562;8.910;2022-12-05T08:21:44;9.43;;;5.80;;
15043;SDS011;7619;48.562;8.910;2022-12-05T08:24:15;8.30;;;5.20;;
15043;SDS011;7619;48.562;8.910;2022-12-05T08:26:44;7.23;;;5.17;;
15043;SDS011;7619;48.562;8.910;2022-12-05T08:29:15;7.23;;;4.70;;
15043;SDS011;7619;48.562;8.910;2022-12-05T08:31:47;10.63;;;5.33;;
15043;SDS011;7619;48.562;8.910;2022-12-05T08:34:17;9.27;;;5.13;;
15043;SDS011;7619;48.562;8.910;2022-12-05T08:36:46;8.30;;;5.83;;
15043;SDS011;7619;48.562;8.910;2022-12-05T08:39:16;10.07;;;5.80;;
15043;SDS011;7619;48.562;8.910;2022-12-05T08:41:46;11.80;;;6.63;;
15043;SDS011;7619;48.562;8.910;2022-12-05T08:44:16;9.23;;;5.90;;
15043;SDS011;7619;48.562;8.910;2022-12-05T08:46:46;10.13;;;6.23;;
15043;SDS011;7619;48.562;8.910;2022-12-05T08:49:16;11.30;;;6.27;;
15043;SDS011;7619;48.562;8.910;2022-12-05T08:51:46;8.27;;;5.50;;
15043;SDS011;7619;48.562;8.910;2022-12-05T08:54:15;8.77;;;5.77;;
15043;SDS011;7619;48.562;8.910;2022-12-05T08:56:44;8.93;;;6.10;;
15043;SDS011;7619;48.562;8.910;2022-12-05T08:59:18;8.77;;;5.80;;
15043;SDS011;7619;48.562;8.910;2022-12-05T09:01:49;9.67;;;5.97;;
15043;SDS011;7619;48.562;8.910;2022-12-05T09:04:18;9.03;;;6.27;;
15043;SDS011;7619;48.562;8.910;2022-12-05T09:06:47;11.13;;;5.83;;
15043;SDS011;7619;48.562;8.910;2022-12-05T09:09:17;8.43;;;5.23;;
15043;SDS011;7619;48.562;8.910;2022-12-05T09:11:46;10.90;;;5.80;;
15043;SDS011;7619;48.562;8.910;2022-12-05T09:14:16;13.13;;;6.60;;
15043;SDS011;7619;48.562;8.910;2022-12-05T09:16:45;8.40;;;5.60;;
15043;SDS011;7619;48.562;8.910;2022-12-05T09:19:15;9.00;;;5.33;;
15043;SDS011;7619;48.562;8.910;2022-12-05T09:21:46;7.07;;;5.13;;
15043;SDS011;7619;48.562;8.910;2022-12-05T09:24:15;11.40;;;6.33;;
15043;SDS011;7619;48.562;8.910;2022-12-05T09:26:44;13.40;;;7.87;;
15043;SDS011;7619;48.562;8.910;2022-12-05T09:29:14;17.90;;;9.10;;
15043;SDS011;7619;48.562;8.910;2022-12-05T09:31:45;10.03;;;6.37;;
15043;SDS011;7619;48.562;8.910;2022-12-05T09:34:17;8.20;;;5.70;;
15043;SDS011;7619;48.562;8.910;2022-12-05T09:36:46;9.00;;;5.30;;
15043;SDS011;7619;48.562;8.910;2022-12-05T09:39:17;7.97;;;5.20;;
15043;SDS011;7619;48.562;8.910;2022-12-05T09:41:50;8.53;;;5.33;;
15043;SDS011;7619;48.562;8.910;2022-12-05T09:44:44;7.53;;;5.63;;
15043;SDS011;7619;48.562;8.910;2022-12-05T09:47:35;10.17;;;6.43;;
15043;SDS011;7619;48.562;8.910;2022-12-05T09:50:13;9.60;;;6.53;;
15043;SDS011;7619;48.562;8.910;2022-12-05T09:52:51;9.00;;;6.67;;
15043;SDS011;7619;48.562;8.910;2022-12-05T09:55:28;18.13;;;9.80;;
15043;SDS011;7619;48.562;8.910;2022-12-05T09:58:02;11.87;;;7.50;;
15043;SDS011;7619;48.562;8.910;2022-12-05T10:00:34;10.13;;;6.43;;
15043;SDS011;7619;48.562;8.910;2022-12-05T10:03:11;12.87;;;7.57;;
15043;SDS011;7619;48.562;8.910;2022-12-05T10:05:36;10.00;;;6.60;;
15043;SDS011;7619;48.562;8.910;2022-12-05T10:08:09;10.57;;;6.53;;
15043;SDS011;7619;48.562;8.910;2022-12-05T10:10:52;9.73;;;6.93;;
15043;SDS011;7619;48.562;8.910;2022-12-05T10:13:26;8.97;;;6.47;;
15043;SDS011;7619;48.562;8.910;2022-12-05T10:16:05;10.57;;;6.20;;
15043;SDS011;7619;48.562;8.910;2022-12-05T10:18:38;8.70;;;6.10;;
15043;SDS011;7619;48.562;8.910;2022-12-05T10:21:11;7.63;;;5.03;;
15043;SDS011;7619;48.562;8.910;2022-12-05T10:23:46;8.23;;;4.80;;
15043;SDS011;7619;48.562;8.910;2022-12-05T10:26:24;7.47;;;5.47;;
15043;SDS011;7619;48.562;8.910;2022-12-05T10:28:56;6.10;;;4.30;;
15043;SDS011;7619;48.562;8.910;2022-12-05T10:31:29;7.57;;;4.30;;
15043;SDS011;7619;48.562;8.910;2022-12-05T10:34:10;6.83;;;4.50;;
15043;SDS011;7619;48.562;8.910;2022-12-05T10:36:44;5.50;;;4.43;;
15043;SDS011;7619;48.562;8.910;2022-12-05T10:39:18;6.93;;;5.53;;
15043;SDS011;7619;48.562;8.910;2022-12-05T10:41:47;7.17;;;4.77;;
15043;SDS011;7619;48.562;8.910;2022-12-05T10:44:16;7.97;;;4.40;;
15043;SDS011;7619;48.562;8.910;2022-12-05T10:46:46;6.43;;;4.53;;
15043;SDS011;7619;48.562;8.910;2022-12-05T10:49:16;9.70;;;5.63;;
15043;SDS011;7619;48.562;8.910;2022-12-05T10:51:46;6.03;;;4.10;;
15043;SDS011;7619;48.562;8.910;2022-12-05T10:54:18;6.43;;;4.03;;
15043;SDS011;7619;48.562;8.910;2022-12-05T10:56:49;5.57;;;3.90;;
15043;SDS011;7619;48.562;8.910;2022-12-05T10:59:19;7.07;;;4.60;;
15043;SDS011;7619;48.562;8.910;2022-12-05T11:01:50;8.17;;;4.27;;
15043;SDS011;7619;48.562;8.910;2022-12-05T11:04:25;5.57;;;4.23;;
15043;SDS011;7619;48.562;8.910;2022-12-05T11:09:34;5.40;;;4.20;;
15043;SDS011;7619;48.562;8.910;2022-12-05T11:12:15;6.17;;;4.30;;
15043;SDS011;7619;48.562;8.910;2022-12-05T11:14:59;4.83;;;3.77;;
15043;SDS011;7619;48.562;8.910;2022-12-05T11:17:32;5.47;;;3.87;;
15043;SDS011;7619;48.562;8.910;2022-12-05T11:20:02;4.60;;;3.00;;
15043;SDS011;7619;48.562;8.910;2022-12-05T11:22:38;5.30;;;4.17;;
15043;SDS011;7619;48.562;8.910;2022-12-05T11:25:22;4.90;;;3.70;;
15043;SDS011;7619;48.562;8.910;2022-12-05T11:27:51;3.73;;;3.33;;
15043;SDS011;7619;48.562;8.910;2022-12-05T11:30:22;5.83;;;3.53;;
15043;SDS011;7619;48.562;8.910;2022-12-05T11:33:10;7.20;;;3.77;;
15043;SDS011;7619;48.562;8.910;2022-12-05T11:35:41;4.50;;;3.70;;
15043;SDS011;7619;48.562;8.910;2022-12-05T11:38:12;5.50;;;4.10;;
15043;SDS011;7619;48.562;8.910;2022-12-05T11:40:54;6.47;;;3.63;;
15043;SDS011;7619;48.562;8.910;2022-12-05T11:43:43;5.13;;;3.60;;
15043;SDS011;7619;48.562;8.910;2022-12-05T11:46:13;5.57;;;3.57;;
15043;SDS011;7619;48.562;8.910;2022-12-05T11:49:02;4.77;;;3.47;;
15043;SDS011;7619;48.562;8.910;2022-12-05T11:51:37;5.27;;;3.20;;
15043;SDS011;7619;48.562;8.910;2022-12-05T11:57:05;5.37;;;3.60;;
15043;SDS011;7619;48.562;8.910;2022-12-05T12:06:03;4.97;;;3.60;;
15043;SDS011;7619;48.562;8.910;2022-12-05T12:08:32;4.17;;;3.17;;
15043;SDS011;7619;48.562;8.910;2022-12-05T12:11:10;3.87;;;2.67;;
15043;SDS011;7619;48.562;8.910;2022-12-05T12:13:44;4.30;;;3.27;;
15043;SDS011;7619;48.562;8.910;2022-12-05T12:16:20;4.43;;;3.00;;
15043;SDS011;7619;48.562;8.910;2022-12-05T12:18:57;4.63;;;2.80;;
15043;SDS011;7619;48.562;8.910;2022-12-05T12:24:04;3.17;;;2.67;;
15043;SDS011;7619;48.562;8.910;2022-12-05T12:26:38;5.97;;;3.30;;
15043;SDS011;7619;48.562;8.910;2022-12-05T12:31:52;3.30;;;2.70;;
15043;SDS011;7619;48.562;8.910;2022-12-05T12:34:31;4.07;;;3.03;;
15043;SDS011;7619;48.562;8.910;2022-12-05T12:37:12;5.97;;;3.77;;
15043;SDS011;7619;48.562;8.910;2022-12-05T12:39:43;5.80;;;4.03;;
15043;SDS011;7619;48.562;8.910;2022-12-05T12:42:22;4.37;;;3.47;;
15043;SDS011;7619;48.562;8.910;2022-12-05T12:48:19;6.07;;;3.00;;
15043;SDS011;7619;48.562;8.910;2022-12-05T12:50:53;7.03;;;3.90;;
15043;SDS011;7619;48.562;8.910;2022-12-05T12:56:35;5.50;;;3.20;;
15043;SDS011;7619;48.562;8.910;2022-12-05T12:59:12;6.37;;;3.27;;
15043;SDS011;7619;48.562;8.910;2022-12-05T13:01:47;5.37;;;3.23;;
15043;SDS011;7619;48.562;8.910;2022-12-05T13:04:21;7.67;;;4.10;;
15043;SDS011;7619;48.562;8.910;2022-12-05T13:06:52;4.77;;;2.83;;
15043;SDS011;7619;48.562;8.910;2022-12-05T13:09:46;4.07;;;3.07;;
15043;SDS011;7619;48.562;8.910;2022-12-05T13:12:25;3.73;;;2.90;;
15043;SDS011;7619;48.562;8.910;2022-12-05T13:14:57;4.00;;;2.80;;
15043;SDS011;7619;48.562;8.910;2022-12-05T13:17:29;4.77;;;3.20;;
15043;SDS011;7619;48.562;8.910;2022-12-05T13:19:59;3.97;;;2.60;;
15043;SDS011;7619;48.562;8.910;2022-12-05T13:25:05;5.17;;;2.63;;
15043;SDS011;7619;48.562;8.910;2022-12-05T13:27:40;4.20;;;2.87;;
15043;SDS011;7619;48.562;8.910;2022-12-05T13:30:20;3.53;;;2.90;;
15043;SDS011;7619;48.562;8.910;2022-12-05T13:32:54;2.87;;;1.97;;
15043;SDS011;7619;48.562;8.910;2022-12-05T13:35:27;2.07;;;1.30;;
15043;SDS011;7619;48.562;8.910;2022-12-05T13:38:21;9.37;;;1.57;;
15043;SDS011;7619;48.562;8.910;2022-12-05T13:40:59;1.07;;;0.83;;
15043;SDS011;7619;48.562;8.910;2022-12-05T13:43:47;1.57;;;1.40;;
15043;SDS011;7619;48.562;8.910;2022-12-05T13:46:19;2.47;;;1.60;;
15043;SDS011;7619;48.562;8.910;2022-12-05T13:48:51;2.00;;;1.20;;
15043;SDS011;7619;48.562;8.910;2022-12-05T13:51:28;1.30;;;1.20;;
15043;SDS011;7619;48.562;8.910;2022-12-05T13:53:59;0.80;;;0.80;;
15043;SDS011;7619;48.562;8.910;2022-12-05T13:56:46;1.77;;;1.40;;
15043;SDS011;7619;48.562;8.910;2022-12-05T14:05:33;1.00;;;0.90;;
15043;SDS011;7619;48.562;8.910;2022-12-05T14:11:20;2.43;;;1.13;;
15043;SDS011;7619;48.562;8.910;2022-12-05T14:13:50;1.30;;;1.00;;
15043;SDS011;7619;48.562;8.910;2022-12-05T14:19:26;1.77;;;1.30;;
15043;SDS011;7619;48.562;8.910;2022-12-05T14:25:10;1.70;;;1.13;;
15043;SDS011;7619;48.562;8.910;2022-12-05T14:27:47;1.53;;;1.10;;
15043;SDS011;7619;48.562;8.910;2022-12-05T14:30:22;2.33;;;1.30;;
15043;SDS011;7619;48.562;8.910;2022-12-05T14:32:54;4.17;;;1.30;;
15043;SDS011;7619;48.562;8.910;2022-12-05T14:35:26;1.83;;;1.53;;
15043;SDS011;7619;48.562;8.910;2022-12-05T14:37:57;1.47;;;1.37;;
15043;SDS011;7619;48.562;8.910;2022-12-05T14:40:29;1.30;;;1.20;;
15043;SDS011;7619;48.562;8.910;2022-12-05T14:43:01;1.77;;;1.17;;
15043;SDS011;7619;48.562;8.910;2022-12-05T14:45:33;1.97;;;1.50;;
15043;SDS011;7619;48.562;8.910;2022-12-05T14:48:05;2.00;;;1.07;;
15043;SDS011;7619;48.562;8.910;2022-12-05T14:50:52;1.87;;;1.17;;
15043;SDS011;7619;48.562;8.910;2022-12-05T14:56:13;1.00;;;1.00;;
15043;SDS011;7619;48.562;8.910;2022-12-05T14:58:46;1.57;;;1.10;;
15043;SDS011;7619;48.562;8.910;2022-12-05T15:01:22;1.47;;;1.27;;
15043;SDS011;7619;48.562;8.910;2022-12-05T15:03:57;1.40;;;1.30;;
15043;SDS011;7619;48.562;8.910;2022-12-05T15:06:33;1.70;;;1.30;;
15043;SDS011;7619;48.562;8.910;2022-12-05T15:09:06;1.73;;;1.47;;
15043;SDS011;7619;48.562;8.910;2022-12-05T15:11:38;6.97;;;3.10;;
15043;SDS011;7619;48.562;8.910;2022-12-05T15:14:09;2.50;;;2.10;;
15043;SDS011;7619;48.562;8.910;2022-12-05T15:16:42;2.00;;;1.57;;
15043;SDS011;7619;48.562;8.910;2022-12-05T15:19:14;4.17;;;1.33;;
15043;SDS011;7619;48.562;8.910;2022-12-05T15:21:46;2.43;;;1.70;;
15043;SDS011;7619;48.562;8.910;2022-12-05T15:24:17;2.37;;;1.83;;
15043;SDS011;7619;48.562;8.910;2022-12-05T15:26:47;2.30;;;1.70;;
15043;SDS011;7619;48.562;8.910;2022-12-05T15:29:23;1.83;;;1.40;;
15043;SDS011;7619;48.562;8.910;2022-12-05T15:31:55;3.23;;;2.10;;
15043;SDS011;7619;48.562;8.910;2022-12-05T15:34:26;1.60;;;1.50;;
15043;SDS011;7619;48.562;8.910;2022-12-05T15:36:59;1.63;;;1.53;;
15043;SDS011;7619;48.562;8.910;2022-12-05T15:39:29;2.67;;;1.77;;
15043;SDS011;7619;48.562;8.910;2022-12-05T15:42:15;3.40;;;2.07;;
15043;SDS011;7619;48.562;8.910;2022-12-05T15:44:44;3.43;;;1.90;;
15043;SDS011;7619;48.562;8.910;2022-12-05T15:47:19;6.33;;;2.80;;
15043;SDS011;7619;48.562;8.910;2022-12-05T15:50:01;2.17;;;1.90;;
15043;SDS011;7619;48.562;8.910;2022-12-05T15:52:32;3.03;;;2.00;;
15043;SDS011;7619;48.562;8.910;2022-12-05T15:55:05;2.43;;;1.47;;
15043;SDS011;7619;48.562;8.910;2022-12-05T15:57:40;2.40;;;1.90;;
15043;SDS011;7619;48.562;8.910;2022-12-05T16:00:13;1.97;;;1.50;;
15043;SDS011;7619;48.562;8.910;2022-12-05T16:02:47;2.33;;;1.37;;
15043;SDS011;7619;48.562;8.910;2022-12-05T16:05:20;2.77;;;2.00;;
15043;SDS011;7619;48.562;8.910;2022-12-05T16:10:29;4.90;;;3.63;;
15043;SDS011;7619;48.562;8.910;2022-12-05T16:13:02;9.30;;;4.17;;
15043;SDS011;7619;48.562;8.910;2022-12-05T16:15:33;8.83;;;4.20;;
15043;SDS011;7619;48.562;8.910;2022-12-05T16:18:02;5.30;;;3.23;;
15043;SDS011;7619;48.562;8.910;2022-12-05T16:20:33;3.53;;;2.37;;
15043;SDS011;7619;48.562;8.910;2022-12-05T16:23:04;2.87;;;2.33;;
15043;SDS011;7619;48.562;8.910;2022-12-05T16:25:47;3.03;;;2.23;;